sensor_id;sensor_type;location;lat;lon;timestamp;P1;durP1;ratioP1;P2;durP2;ratioP2
20593;SDS011;10455;48.732;10.266;2023-03-12T00:03:07;9.93;;;7.30;;
20593;SDS011;10455;48.732;10.266;2023-03-12T00:08:11;10.10;;;6.97;;
20593;SDS011;10455;48.732;10.266;2023-03-12T00:13:13;8.97;;;7.90;;
20593;SDS011;10455;48.732;10.266;2023-03-12T00:18:15;12.43;;;8.83;;
20593;SDS011;10455;48.732;10.266;2023-03-12T00:23:18;11.83;;;8.80;;
20593;SDS011;10455;48.732;10.266;2023-03-12T00:28:20;14.63;;;9.13;;
20593;SDS011;10455;48.732;10.266;2023-03-12T00:33:22;9.30;;;7.90;;
20593;SDS011;10455;48.732;10.266;2023-03-12T00:38:26;10.03;;;8.13;;
20593;SDS011;10455;48.732;10.266;2023-03-12T00:43:28;9.90;;;6.83;;
20593;SDS011;10455;48.732;10.266;2023-03-12T00:48:30;8.07;;;6.83;;
20593;SDS011;10455;48.732;10.266;2023-03-12T00:53:34;8.87;;;6.67;;
20593;SDS011;10455;48.732;10.266;2023-03-12T00:58:36;12.13;;;8.20;;
20593;SDS011;10455;48.732;10.266;2023-03-12T01:03:38;8.50;;;7.53;;
20593;SDS011;10455;48.732;10.266;2023-03-12T01:08:41;8.70;;;6.90;;
20593;SDS011;10455;48.732;10.266;2023-03-12T01:13:43;10.03;;;8.07;;
20593;SDS011;10455;48.732;10.266;2023-03-12T01:18:45;11.30;;;8.13;;
20593;SDS011;10455;48.732;10.266;2023-03-12T01:23:49;10.93;;;8.30;;
20593;SDS011;10455;48.732;10.266;2023-03-12T01:28:51;14.73;;;8.63;;
20593;SDS011;10455;48.732;10.266;2023-03-12T01:33:53;10.57;;;8.67;;
20593;SDS011;10455;48.732;10.266;2023-03-12T01:38:57;12.07;;;7.97;;
20593;SDS011;10455;48.732;10.266;2023-03-12T01:44:00;10.50;;;7.50;;
20593;SDS011;10455;48.732;10.266;2023-03-12T01:49:04;17.83;;;10.83;;
20593;SDS011;10455;48.732;10.266;2023-03-12T01:54:11;21.37;;;12.63;;
20593;SDS011;10455;48.732;10.266;2023-03-12T01:59:17;21.40;;;12.07;;
20593;SDS011;10455;48.732;10.266;2023-03-12T02:04:22;25.23;;;14.23;;
20593;SDS011;10455;48.732;10.266;2023-03-12T02:09:28;23.37;;;12.43;;
20593;SDS011;10455;48.732;10.266;2023-03-12T02:14:32;18.90;;;10.57;;
20593;SDS011;10455;48.732;10.266;2023-03-12T02:19:36;19.43;;;11.20;;
20593;SDS011;10455;48.732;10.266;2023-03-12T02:24:47;14.60;;;9.53;;
20593;SDS011;10455;48.732;10.266;2023-03-12T02:29:55;12.57;;;10.40;;
20593;SDS011;10455;48.732;10.266;2023-03-12T02:34:58;17.57;;;9.73;;
20593;SDS011;10455;48.732;10.266;2023-03-12T02:40:02;12.47;;;10.47;;
20593;SDS011;10455;48.732;10.266;2023-03-12T02:45:12;15.17;;;9.77;;
20593;SDS011;10455;48.732;10.266;2023-03-12T02:50:14;12.40;;;9.03;;
20593;SDS011;10455;48.732;10.266;2023-03-12T02:55:16;10.07;;;8.77;;
20593;SDS011;10455;48.732;10.266;2023-03-12T03:00:20;17.03;;;8.57;;
20593;SDS011;10455;48.732;10.266;2023-03-12T03:05:22;11.80;;;8.83;;
20593;SDS011;10455;48.732;10.266;2023-03-12T03:10:24;10.77;;;8.53;;
20593;SDS011;10455;48.732;10.266;2023-03-12T03:15:27;12.37;;;8.63;;
20593;SDS011;10455;48.732;10.266;2023-03-12T03:20:29;9.80;;;8.37;;
20593;SDS011;10455;48.732;10.266;2023-03-12T03:25:32;13.40;;;9.30;;
20593;SDS011;10455;48.732;10.266;2023-03-12T03:30:35;15.07;;;9.73;;
20593;SDS011;10455;48.732;10.266;2023-03-12T03:35:37;11.50;;;8.60;;
20593;SDS011;10455;48.732;10.266;2023-03-12T03:40:39;15.40;;;9.97;;
20593;SDS011;10455;48.732;10.266;2023-03-12T03:45:42;13.70;;;9.77;;
20593;SDS011;10455;48.732;10.266;2023-03-12T03:50:44;14.00;;;8.90;;
20593;SDS011;10455;48.732;10.266;2023-03-12T03:55:46;10.10;;;8.13;;
20593;SDS011;10455;48.732;10.266;2023-03-12T04:00:50;14.40;;;8.57;;
20593;SDS011;10455;48.732;10.266;2023-03-12T04:05:55;11.03;;;8.50;;
20593;SDS011;10455;48.732;10.266;2023-03-12T04:10:58;10.73;;;8.30;;
20593;SDS011;10455;48.732;10.266;2023-03-12T04:16:07;12.43;;;8.80;;
20593;SDS011;10455;48.732;10.266;2023-03-12T04:21:10;10.20;;;7.47;;
20593;SDS011;10455;48.732;10.266;2023-03-12T04:26:13;10.37;;;8.20;;
20593;SDS011;10455;48.732;10.266;2023-03-12T04:31:17;10.23;;;7.67;;
20593;SDS011;10455;48.732;10.266;2023-03-12T04:36:19;11.93;;;7.77;;
20593;SDS011;10455;48.732;10.266;2023-03-12T04:41:21;11.80;;;8.30;;
20593;SDS011;10455;48.732;10.266;2023-03-12T04:46:24;11.47;;;8.00;;
20593;SDS011;10455;48.732;10.266;2023-03-12T04:51:27;10.80;;;7.63;;
20593;SDS011;10455;48.732;10.266;2023-03-12T04:56:29;10.97;;;8.07;;
20593;SDS011;10455;48.732;10.266;2023-03-12T05:01:33;10.27;;;7.27;;
20593;SDS011;10455;48.732;10.266;2023-03-12T05:06:36;11.00;;;7.20;;
20593;SDS011;10455;48.732;10.266;2023-03-12T05:11:38;13.27;;;7.70;;
20593;SDS011;10455;48.732;10.266;2023-03-12T05:16:41;8.53;;;6.73;;
20593;SDS011;10455;48.732;10.266;2023-03-12T05:21:43;9.63;;;8.33;;
20593;SDS011;10455;48.732;10.266;2023-03-12T05:26:45;12.13;;;8.17;;
20593;SDS011;10455;48.732;10.266;2023-03-12T05:31:49;8.83;;;7.40;;
20593;SDS011;10455;48.732;10.266;2023-03-12T05:36:51;11.27;;;7.63;;
20593;SDS011;10455;48.732;10.266;2023-03-12T05:41:52;10.00;;;7.20;;
20593;SDS011;10455;48.732;10.266;2023-03-12T05:46:57;9.57;;;7.13;;
20593;SDS011;10455;48.732;10.266;2023-03-12T05:51:59;8.53;;;7.17;;
20593;SDS011;10455;48.732;10.266;2023-03-12T05:57:01;13.00;;;7.53;;
20593;SDS011;10455;48.732;10.266;2023-03-12T06:02:04;8.13;;;7.33;;
20593;SDS011;10455;48.732;10.266;2023-03-12T06:07:06;8.63;;;7.53;;
20593;SDS011;10455;48.732;10.266;2023-03-12T06:12:08;9.30;;;7.23;;
20593;SDS011;10455;48.732;10.266;2023-03-12T06:17:11;8.50;;;7.10;;
20593;SDS011;10455;48.732;10.266;2023-03-12T06:22:14;11.93;;;7.87;;
20593;SDS011;10455;48.732;10.266;2023-03-12T06:27:16;8.93;;;7.23;;
20593;SDS011;10455;48.732;10.266;2023-03-12T06:32:20;10.00;;;7.37;;
20593;SDS011;10455;48.732;10.266;2023-03-12T06:37:22;9.87;;;6.90;;
20593;SDS011;10455;48.732;10.266;2023-03-12T06:42:23;8.00;;;6.40;;
20593;SDS011;10455;48.732;10.266;2023-03-12T06:47:28;8.10;;;6.80;;
20593;SDS011;10455;48.732;10.266;2023-03-12T06:52:29;9.10;;;6.90;;
20593;SDS011;10455;48.732;10.266;2023-03-12T06:57:32;7.87;;;7.07;;
20593;SDS011;10455;48.732;10.266;2023-03-12T07:02:35;11.17;;;8.03;;
20593;SDS011;10455;48.732;10.266;2023-03-12T07:07:37;8.90;;;7.10;;
20593;SDS011;10455;48.732;10.266;2023-03-12T07:12:39;11.00;;;7.80;;
20593;SDS011;10455;48.732;10.266;2023-03-12T07:17:42;11.77;;;7.77;;
20593;SDS011;10455;48.732;10.266;2023-03-12T07:22:44;12.20;;;8.40;;
20593;SDS011;10455;48.732;10.266;2023-03-12T07:27:46;11.90;;;9.83;;
20593;SDS011;10455;48.732;10.266;2023-03-12T07:32:49;13.47;;;9.43;;
20593;SDS011;10455;48.732;10.266;2023-03-12T07:37:51;14.57;;;11.10;;
20593;SDS011;10455;48.732;10.266;2023-03-12T07:42:53;15.03;;;11.13;;
20593;SDS011;10455;48.732;10.266;2023-03-12T07:47:57;17.07;;;11.17;;
20593;SDS011;10455;48.732;10.266;2023-03-12T07:52:58;15.97;;;11.87;;
20593;SDS011;10455;48.732;10.266;2023-03-12T07:58:01;17.80;;;12.87;;
20593;SDS011;10455;48.732;10.266;2023-03-12T08:03:04;17.93;;;13.63;;
20593;SDS011;10455;48.732;10.266;2023-03-12T08:08:06;18.17;;;13.57;;
20593;SDS011;10455;48.732;10.266;2023-03-12T08:13:08;17.70;;;13.60;;
20593;SDS011;10455;48.732;10.266;2023-03-12T08:18:12;17.53;;;14.13;;
20593;SDS011;10455;48.732;10.266;2023-03-12T08:23:14;20.17;;;14.90;;
20593;SDS011;10455;48.732;10.266;2023-03-12T08:28:16;20.13;;;15.00;;
20593;SDS011;10455;48.732;10.266;2023-03-12T08:33:21;21.77;;;15.90;;
20593;SDS011;10455;48.732;10.266;2023-03-12T08:38:23;22.27;;;15.43;;
20593;SDS011;10455;48.732;10.266;2023-03-12T08:43:25;22.47;;;16.67;;
20593;SDS011;10455;48.732;10.266;2023-03-12T08:48:29;22.07;;;17.07;;
20593;SDS011;10455;48.732;10.266;2023-03-12T08:53:32;26.17;;;17.97;;
20593;SDS011;10455;48.732;10.266;2023-03-12T08:58:37;26.37;;;19.07;;
20593;SDS011;10455;48.732;10.266;2023-03-12T09:03:40;26.50;;;19.63;;
20593;SDS011;10455;48.732;10.266;2023-03-12T09:08:42;33.07;;;22.20;;
20593;SDS011;10455;48.732;10.266;2023-03-12T09:13:45;30.20;;;20.57;;
20593;SDS011;10455;48.732;10.266;2023-03-12T09:18:48;35.90;;;20.97;;
20593;SDS011;10455;48.732;10.266;2023-03-12T09:23:50;26.90;;;19.03;;
20593;SDS011;10455;48.732;10.266;2023-03-12T09:28:52;25.57;;;20.57;;
20593;SDS011;10455;48.732;10.266;2023-03-12T09:33:57;30.10;;;22.10;;
20593;SDS011;10455;48.732;10.266;2023-03-12T09:38:59;28.40;;;22.30;;
20593;SDS011;10455;48.732;10.266;2023-03-12T09:44:02;122.30;;;29.63;;
20593;SDS011;10455;48.732;10.266;2023-03-12T09:49:13;258.63;;;36.70;;
20593;SDS011;10455;48.732;10.266;2023-03-12T09:54:22;46.67;;;29.57;;
20593;SDS011;10455;48.732;10.266;2023-03-12T09:59:28;198.90;;;34.37;;
20593;SDS011;10455;48.732;10.266;2023-03-12T10:04:34;159.17;;;29.57;;
20593;SDS011;10455;48.732;10.266;2023-03-12T10:09:49;26.10;;;18.90;;
20593;SDS011;10455;48.732;10.266;2023-03-12T10:15:14;35.47;;;21.63;;
20593;SDS011;10455;48.732;10.266;2023-03-12T10:26:02;31.37;;;22.53;;
20593;SDS011;10455;48.732;10.266;2023-03-12T10:31:12;58.47;;;24.47;;
20593;SDS011;10455;48.732;10.266;2023-03-12T10:36:21;28.73;;;20.93;;
20593;SDS011;10455;48.732;10.266;2023-03-12T10:41:28;289.67;;;38.63;;
20593;SDS011;10455;48.732;10.266;2023-03-12T10:52:13;106.33;;;24.20;;
20593;SDS011;10455;48.732;10.266;2023-03-12T10:57:17;51.70;;;20.83;;
20593;SDS011;10455;48.732;10.266;2023-03-12T11:02:30;20.77;;;17.93;;
20593;SDS011;10455;48.732;10.266;2023-03-12T11:07:35;26.97;;;20.60;;
20593;SDS011;10455;48.732;10.266;2023-03-12T11:12:37;42.70;;;23.17;;
20593;SDS011;10455;48.732;10.266;2023-03-12T11:17:40;33.17;;;23.20;;
20593;SDS011;10455;48.732;10.266;2023-03-12T11:22:43;32.87;;;23.27;;
20593;SDS011;10455;48.732;10.266;2023-03-12T11:27:46;31.47;;;25.67;;
20593;SDS011;10455;48.732;10.266;2023-03-12T11:32:52;37.83;;;27.97;;
20593;SDS011;10455;48.732;10.266;2023-03-12T11:37:59;37.47;;;27.67;;
20593;SDS011;10455;48.732;10.266;2023-03-12T11:43:13;41.33;;;29.87;;
20593;SDS011;10455;48.732;10.266;2023-03-12T11:48:27;44.07;;;31.93;;
20593;SDS011;10455;48.732;10.266;2023-03-12T11:53:46;37.83;;;28.70;;
20593;SDS011;10455;48.732;10.266;2023-03-12T11:59:02;34.40;;;25.73;;
20593;SDS011;10455;48.732;10.266;2023-03-12T12:09:45;30.47;;;22.80;;
20593;SDS011;10455;48.732;10.266;2023-03-12T12:14:56;31.23;;;21.33;;
20593;SDS011;10455;48.732;10.266;2023-03-12T12:20:10;25.03;;;20.67;;
20593;SDS011;10455;48.732;10.266;2023-03-12T12:25:24;24.97;;;18.97;;
20593;SDS011;10455;48.732;10.266;2023-03-12T12:30:39;28.67;;;21.50;;
20593;SDS011;10455;48.732;10.266;2023-03-12T12:35:59;26.93;;;21.77;;
20593;SDS011;10455;48.732;10.266;2023-03-12T12:41:10;32.13;;;26.20;;
20593;SDS011;10455;48.732;10.266;2023-03-12T12:46:17;20.40;;;17.80;;
20593;SDS011;10455;48.732;10.266;2023-03-12T12:51:23;26.60;;;16.77;;
20593;SDS011;10455;48.732;10.266;2023-03-12T12:56:31;44.57;;;14.63;;
20593;SDS011;10455;48.732;10.266;2023-03-12T13:01:41;9.38;;;7.35;;
20593;SDS011;10455;48.732;10.266;2023-03-12T13:06:54;33.97;;;6.47;;
20593;SDS011;10455;48.732;10.266;2023-03-12T13:11:58;4.82;;;4.32;;
20593;SDS011;10455;48.732;10.266;2023-03-12T13:17:18;6.00;;;4.53;;
20593;SDS011;10455;48.732;10.266;2023-03-12T13:22:30;6.30;;;4.10;;
20593;SDS011;10455;48.732;10.266;2023-03-12T13:27:43;6.17;;;5.20;;
20593;SDS011;10455;48.732;10.266;2023-03-12T13:33:05;6.63;;;5.70;;
20593;SDS011;10455;48.732;10.266;2023-03-12T13:38:17;6.23;;;3.90;;
20593;SDS011;10455;48.732;10.266;2023-03-12T13:43:48;5.20;;;3.87;;
20593;SDS011;10455;48.732;10.266;2023-03-12T13:48:51;8.20;;;4.40;;
20593;SDS011;10455;48.732;10.266;2023-03-12T13:54:00;5.63;;;3.77;;
20593;SDS011;10455;48.732;10.266;2023-03-12T13:59:05;5.63;;;3.30;;
20593;SDS011;10455;48.732;10.266;2023-03-12T14:04:14;5.88;;;3.30;;
20593;SDS011;10455;48.732;10.266;2023-03-12T14:09:21;3.22;;;2.58;;
20593;SDS011;10455;48.732;10.266;2023-03-12T14:19:59;2.53;;;2.33;;
20593;SDS011;10455;48.732;10.266;2023-03-12T14:25:05;3.13;;;2.80;;
20593;SDS011;10455;48.732;10.266;2023-03-12T14:30:18;5.77;;;3.40;;
20593;SDS011;10455;48.732;10.266;2023-03-12T14:35:22;4.00;;;2.83;;
20593;SDS011;10455;48.732;10.266;2023-03-12T14:40:29;4.63;;;3.17;;
20593;SDS011;10455;48.732;10.266;2023-03-12T14:45:40;6.97;;;3.13;;
20593;SDS011;10455;48.732;10.266;2023-03-12T14:50:42;4.80;;;3.10;;
20593;SDS011;10455;48.732;10.266;2023-03-12T14:55:45;6.70;;;3.57;;
20593;SDS011;10455;48.732;10.266;2023-03-12T15:00:54;6.93;;;3.90;;
20593;SDS011;10455;48.732;10.266;2023-03-12T15:05:58;8.47;;;3.50;;
20593;SDS011;10455;48.732;10.266;2023-03-12T15:11:00;7.10;;;3.10;;
20593;SDS011;10455;48.732;10.266;2023-03-12T15:16:04;6.63;;;2.90;;
20593;SDS011;10455;48.732;10.266;2023-03-12T15:21:06;4.27;;;2.87;;
20593;SDS011;10455;48.732;10.266;2023-03-12T15:26:12;4.37;;;2.43;;
20593;SDS011;10455;48.732;10.266;2023-03-12T15:31:18;4.03;;;2.60;;
20593;SDS011;10455;48.732;10.266;2023-03-12T15:36:24;4.57;;;2.30;;
20593;SDS011;10455;48.732;10.266;2023-03-12T15:41:31;3.97;;;2.30;;
20593;SDS011;10455;48.732;10.266;2023-03-12T15:46:44;7.03;;;2.50;;
20593;SDS011;10455;48.732;10.266;2023-03-12T15:51:56;5.00;;;2.40;;
20593;SDS011;10455;48.732;10.266;2023-03-12T15:57:19;6.17;;;2.70;;
20593;SDS011;10455;48.732;10.266;2023-03-12T16:02:34;5.27;;;2.97;;
20593;SDS011;10455;48.732;10.266;2023-03-12T16:07:37;6.20;;;2.70;;
20593;SDS011;10455;48.732;10.266;2023-03-12T16:12:39;5.27;;;2.70;;
20593;SDS011;10455;48.732;10.266;2023-03-12T16:17:43;6.10;;;2.50;;
20593;SDS011;10455;48.732;10.266;2023-03-12T16:22:45;7.03;;;3.20;;
20593;SDS011;10455;48.732;10.266;2023-03-12T16:27:48;6.73;;;3.13;;
20593;SDS011;10455;48.732;10.266;2023-03-12T16:32:53;7.07;;;2.83;;
20593;SDS011;10455;48.732;10.266;2023-03-12T16:37:55;6.53;;;3.70;;
20593;SDS011;10455;48.732;10.266;2023-03-12T16:42:57;6.23;;;3.80;;
20593;SDS011;10455;48.732;10.266;2023-03-12T16:48:03;6.00;;;3.97;;
20593;SDS011;10455;48.732;10.266;2023-03-12T16:53:06;7.03;;;3.47;;
20593;SDS011;10455;48.732;10.266;2023-03-12T16:58:12;5.17;;;3.03;;
20593;SDS011;10455;48.732;10.266;2023-03-12T17:03:20;7.10;;;3.47;;
20593;SDS011;10455;48.732;10.266;2023-03-12T17:08:26;6.27;;;2.77;;
20593;SDS011;10455;48.732;10.266;2023-03-12T17:13:28;7.10;;;3.17;;
20593;SDS011;10455;48.732;10.266;2023-03-12T17:18:32;6.10;;;3.60;;
20593;SDS011;10455;48.732;10.266;2023-03-12T17:23:34;7.83;;;5.10;;
20593;SDS011;10455;48.732;10.266;2023-03-12T17:28:36;8.43;;;3.93;;
20593;SDS011;10455;48.732;10.266;2023-03-12T17:33:39;9.23;;;5.00;;
20593;SDS011;10455;48.732;10.266;2023-03-12T17:38:42;9.83;;;5.40;;
20593;SDS011;10455;48.732;10.266;2023-03-12T17:43:44;8.33;;;4.17;;
20593;SDS011;10455;48.732;10.266;2023-03-12T17:48:47;5.20;;;3.40;;
20593;SDS011;10455;48.732;10.266;2023-03-12T17:53:49;8.00;;;6.10;;
20593;SDS011;10455;48.732;10.266;2023-03-12T17:58:51;6.73;;;2.97;;
20593;SDS011;10455;48.732;10.266;2023-03-12T18:03:54;7.30;;;3.93;;
20593;SDS011;10455;48.732;10.266;2023-03-12T18:08:56;7.33;;;3.90;;
20593;SDS011;10455;48.732;10.266;2023-03-12T18:13:58;8.00;;;3.10;;
20593;SDS011;10455;48.732;10.266;2023-03-12T18:19:02;7.97;;;2.93;;
20593;SDS011;10455;48.732;10.266;2023-03-12T18:24:04;6.73;;;2.83;;
20593;SDS011;10455;48.732;10.266;2023-03-12T18:29:07;6.17;;;3.57;;
20593;SDS011;10455;48.732;10.266;2023-03-12T18:34:10;7.97;;;2.80;;
20593;SDS011;10455;48.732;10.266;2023-03-12T18:39:12;9.13;;;2.73;;
20593;SDS011;10455;48.732;10.266;2023-03-12T18:44:14;7.80;;;2.93;;
20593;SDS011;10455;48.732;10.266;2023-03-12T18:49:17;6.70;;;2.77;;
20593;SDS011;10455;48.732;10.266;2023-03-12T18:54:19;7.57;;;3.70;;
20593;SDS011;10455;48.732;10.266;2023-03-12T18:59:21;5.97;;;2.97;;
20593;SDS011;10455;48.732;10.266;2023-03-12T19:04:25;9.43;;;3.87;;
20593;SDS011;10455;48.732;10.266;2023-03-12T19:09:26;11.03;;;5.40;;
20593;SDS011;10455;48.732;10.266;2023-03-12T19:14:28;6.70;;;3.60;;
20593;SDS011;10455;48.732;10.266;2023-03-12T19:19:32;9.37;;;4.97;;
20593;SDS011;10455;48.732;10.266;2023-03-12T19:24:34;4.33;;;2.90;;
20593;SDS011;10455;48.732;10.266;2023-03-12T19:29:36;5.43;;;3.13;;
20593;SDS011;10455;48.732;10.266;2023-03-12T19:34:39;10.03;;;4.63;;
20593;SDS011;10455;48.732;10.266;2023-03-12T19:39:41;8.77;;;3.53;;
20593;SDS011;10455;48.732;10.266;2023-03-12T19:44:43;5.33;;;3.20;;
20593;SDS011;10455;48.732;10.266;2023-03-12T19:49:46;7.97;;;2.90;;
20593;SDS011;10455;48.732;10.266;2023-03-12T19:54:48;7.23;;;4.27;;
20593;SDS011;10455;48.732;10.266;2023-03-12T19:59:50;8.43;;;3.80;;
20593;SDS011;10455;48.732;10.266;2023-03-12T20:04:53;7.60;;;3.30;;
20593;SDS011;10455;48.732;10.266;2023-03-12T20:09:55;8.57;;;3.63;;
20593;SDS011;10455;48.732;10.266;2023-03-12T20:14:57;7.93;;;3.37;;
20593;SDS011;10455;48.732;10.266;2023-03-12T20:20:00;11.97;;;4.50;;
20593;SDS011;10455;48.732;10.266;2023-03-12T20:25:05;7.40;;;3.60;;
20593;SDS011;10455;48.732;10.266;2023-03-12T20:30:09;8.67;;;3.00;;
20593;SDS011;10455;48.732;10.266;2023-03-12T20:35:13;10.03;;;3.40;;
20593;SDS011;10455;48.732;10.266;2023-03-12T20:40:16;5.70;;;2.73;;
20593;SDS011;10455;48.732;10.266;2023-03-12T20:45:18;8.40;;;2.93;;
20593;SDS011;10455;48.732;10.266;2023-03-12T20:50:21;9.53;;;3.27;;
20593;SDS011;10455;48.732;10.266;2023-03-12T20:55:23;6.10;;;3.13;;
20593;SDS011;10455;48.732;10.266;2023-03-12T21:00:25;8.67;;;3.67;;
20593;SDS011;10455;48.732;10.266;2023-03-12T21:05:28;10.97;;;2.90;;
20593;SDS011;10455;48.732;10.266;2023-03-12T21:10:30;7.70;;;3.10;;
20593;SDS011;10455;48.732;10.266;2023-03-12T21:15:35;10.33;;;3.50;;
20593;SDS011;10455;48.732;10.266;2023-03-12T21:20:39;7.43;;;3.27;;
20593;SDS011;10455;48.732;10.266;2023-03-12T21:25:42;8.47;;;3.17;;
20593;SDS011;10455;48.732;10.266;2023-03-12T21:30:44;7.43;;;3.23;;
20593;SDS011;10455;48.732;10.266;2023-03-12T21:35:47;9.10;;;3.00;;
20593;SDS011;10455;48.732;10.266;2023-03-12T21:40:49;8.10;;;3.50;;
20593;SDS011;10455;48.732;10.266;2023-03-12T21:45:53;6.70;;;2.83;;
20593;SDS011;10455;48.732;10.266;2023-03-12T21:50:56;7.90;;;3.20;;
20593;SDS011;10455;48.732;10.266;2023-03-12T21:56:01;9.57;;;3.33;;
20593;SDS011;10455;48.732;10.266;2023-03-12T22:01:05;6.33;;;3.17;;
20593;SDS011;10455;48.732;10.266;2023-03-12T22:06:10;7.97;;;3.03;;
20593;SDS011;10455;48.732;10.266;2023-03-12T22:11:14;8.27;;;2.90;;
20593;SDS011;10455;48.732;10.266;2023-03-12T22:16:16;8.60;;;3.27;;
20593;SDS011;10455;48.732;10.266;2023-03-12T22:21:20;10.67;;;3.57;;
20593;SDS011;10455;48.732;10.266;2023-03-12T22:26:23;8.67;;;2.97;;
20593;SDS011;10455;48.732;10.266;2023-03-12T22:31:26;7.77;;;3.57;;
20593;SDS011;10455;48.732;10.266;2023-03-12T22:36:30;8.93;;;3.43;;
20593;SDS011;10455;48.732;10.266;2023-03-12T22:41:32;7.83;;;3.67;;
20593;SDS011;10455;48.732;10.266;2023-03-12T22:46:34;11.27;;;2.93;;
20593;SDS011;10455;48.732;10.266;2023-03-12T22:51:38;9.47;;;3.33;;
20593;SDS011;10455;48.732;10.266;2023-03-12T22:56:40;9.80;;;3.03;;
20593;SDS011;10455;48.732;10.266;2023-03-12T23:01:42;7.30;;;3.17;;
20593;SDS011;10455;48.732;10.266;2023-03-12T23:06:45;6.93;;;3.43;;
20593;SDS011;10455;48.732;10.266;2023-03-12T23:11:47;11.57;;;3.50;;
20593;SDS011;10455;48.732;10.266;2023-03-12T23:16:49;13.90;;;3.80;;
20593;SDS011;10455;48.732;10.266;2023-03-12T23:21:52;13.27;;;3.53;;
20593;SDS011;10455;48.732;10.266;2023-03-12T23:26:54;8.33;;;3.43;;
20593;SDS011;10455;48.732;10.266;2023-03-12T23:31:57;12.33;;;3.80;;
20593;SDS011;10455;48.732;10.266;2023-03-12T23:37:00;9.50;;;3.60;;
20593;SDS011;10455;48.732;10.266;2023-03-12T23:42:02;12.50;;;4.07;;
20593;SDS011;10455;48.732;10.266;2023-03-12T23:47:04;10.37;;;3.60;;
20593;SDS011;10455;48.732;10.266;2023-03-12T23:52:08;13.97;;;4.10;;
20593;SDS011;10455;48.732;10.266;2023-03-12T23:57:10;10.63;;;4.20;;
